Franklin, Louisiana
Current Conditions -  °F | °C
As of 8:15 PM on Monday 22 Dec 2014 (Local Time) from KPTN Reporting Station
Overcast Overcast  
Wind Chill: 19°   Ceiling: 3500
Heat Index: 19°   Visibility: 5mi
Dew Point: 18°   Wind: 8mph
Humidity: 94%   Direction: 200°SSW
Pressure: 29.73"   Gusts: NA
Location:  29.79°N, 91.5°W
Report Text: KPTN 230215Z AUTO 20007KT 5SM SCT004 BKN035 OVC044 19/18 A2973 RMK AO1
Loading
Personal Weather Stations






























Interactive Weather Map New forecast layout! Learn more

10-Day Weather Forecast

Advertisements
Track Severe Weather on mobile